createdAt,value
2022-11-09T05:57:53.508Z,5.2
2022-11-09T06:01:03.753Z,5.2
2022-11-09T06:03:54.115Z,5.2
2022-11-09T06:06:54.322Z,5.2
2022-11-09T06:09:54.434Z,5.2
2022-11-09T06:12:54.659Z,5.2
2022-11-09T06:15:54.875Z,4.5
2022-11-09T06:18:55.129Z,3.8
2022-11-09T06:21:55.396Z,3.3
2022-11-09T06:24:55.586Z,3.1
2022-11-09T06:27:55.812Z,3.1
2022-11-09T06:30:56.026Z,3.6
2022-11-09T06:33:56.263Z,5
2022-11-09T06:36:51.481Z,4.7
2022-11-09T06:39:51.722Z,5.7
2022-11-09T06:42:52.017Z,7.2
2022-11-09T06:45:52.183Z,10.2
2022-11-09T06:48:54.643Z,13.8
2022-11-09T06:51:52.625Z,17.6
2022-11-09T06:54:52.894Z,21.7
2022-11-09T06:57:53.081Z,25.1
2022-11-09T07:00:53.332Z,29.4
2022-11-09T07:03:53.529Z,33.5
2022-11-09T07:06:53.769Z,38.1
2022-11-09T07:09:54.003Z,42.3
2022-11-09T07:12:54.198Z,46.1
2022-11-09T07:15:54.430Z,51.1
2022-11-09T07:18:54.670Z,55.2
2022-11-09T07:21:54.876Z,60.7
2022-11-09T07:24:55.119Z,66.7
2022-11-09T07:27:55.367Z,74
2022-11-09T07:30:55.564Z,78.8
2022-11-09T07:33:55.813Z,86.7
2022-11-09T07:36:56.027Z,96.9
2022-11-09T07:39:51.268Z,107.4
2022-11-09T07:42:51.484Z,117.4
2022-11-09T07:45:51.726Z,125.3
2022-11-09T07:48:51.941Z,134.8
2022-11-09T07:51:52.204Z,146.1
2022-11-09T07:54:52.566Z,164.3
2022-11-09T07:57:52.635Z,174.7
2022-11-09T08:00:52.849Z,183.3
2022-11-09T08:03:53.090Z,182.2
2022-11-09T08:06:53.360Z,187.7
2022-11-09T08:09:53.522Z,197.2
2022-11-09T08:12:53.793Z,202
2022-11-09T08:15:53.980Z,202.3
2022-11-09T08:18:54.218Z,205.4
2022-11-09T08:21:54.478Z,216.3
2022-11-09T08:24:54.674Z,237.1
2022-11-09T08:27:54.903Z,260.7
2022-11-09T08:30:55.159Z,264
2022-11-09T08:33:55.352Z,260.2
2022-11-09T08:36:55.587Z,259.6
2022-11-09T08:39:55.822Z,279
2022-11-09T08:42:56.078Z,295.5
2022-11-09T08:45:51.245Z,306.9
2022-11-09T08:48:51.504Z,310.1
2022-11-09T08:51:51.729Z,339.8
2022-11-09T08:54:52.015Z,377.9
2022-11-09T08:57:52.186Z,426.7
2022-11-09T09:00:52.429Z,457.8
2022-11-09T09:03:52.646Z,465.7
2022-11-09T09:06:52.917Z,473.2
2022-11-09T09:09:53.093Z,479.5
2022-11-09T09:12:53.339Z,485.8
2022-11-09T09:15:53.547Z,476.9
2022-11-09T09:18:53.784Z,465.5
2022-11-09T09:21:59.023Z,439.3
2022-11-09T09:24:54.243Z,422.2
2022-11-09T09:27:54.442Z,408
2022-11-09T09:30:54.725Z,395.6
2022-11-09T09:33:54.903Z,386.3
2022-11-09T09:36:55.144Z,374.8
2022-11-09T09:39:55.361Z,362.9
2022-11-09T09:42:55.591Z,372.5
2022-11-09T09:45:55.817Z,383.1
2022-11-09T09:48:51.054Z,406.7
2022-11-09T09:51:51.265Z,459.5
2022-11-09T09:54:52.126Z,495.7
2022-11-09T09:57:51.728Z,527.3
2022-11-09T10:00:51.980Z,542.5
2022-11-09T10:03:52.201Z,543.2
2022-11-09T10:06:52.495Z,528.9
2022-11-09T10:09:52.644Z,540.5
2022-11-09T10:12:52.861Z,558.6
2022-11-09T10:15:53.084Z,531.9
2022-11-09T10:18:53.348Z,508.8
2022-11-09T10:21:53.549Z,488.2
2022-11-09T10:25:18.413Z,510.2
2022-11-09T10:27:54.021Z,515.9
2022-11-09T10:30:54.249Z,514.5
2022-11-09T10:33:54.472Z,494.5
2022-11-09T10:36:54.687Z,460.7
2022-11-09T10:39:54.923Z,458.4
2022-11-09T10:42:55.156Z,453.7
2022-11-09T10:45:55.365Z,472.4
2022-11-09T10:48:55.610Z,448.4
2022-11-09T10:51:50.827Z,442.3
2022-11-09T10:54:51.039Z,443
2022-11-09T10:57:51.280Z,447.7
2022-11-09T11:00:51.515Z,443.2
2022-11-09T11:03:51.727Z,431.9
2022-11-09T11:06:51.999Z,439.4
2022-11-09T11:09:52.192Z,414.2
2022-11-09T11:12:52.404Z,427.4
2022-11-09T11:15:52.643Z,459.1
2022-11-09T11:18:52.850Z,459.4
2022-11-09T11:21:53.083Z,455.8
2022-11-09T11:24:53.320Z,459.8
2022-11-09T11:27:53.548Z,460.9
2022-11-09T11:30:53.836Z,492.4
2022-11-09T11:33:53.997Z,509.4
2022-11-09T11:36:54.213Z,508.1
2022-11-09T11:39:54.453Z,488.8
2022-11-09T11:42:54.673Z,529.4
2022-11-09T11:45:54.872Z,551.5
2022-11-09T11:48:55.139Z,584
2022-11-09T11:51:55.373Z,610.4
2022-11-09T11:54:55.580Z,592.1
2022-11-09T11:57:55.851Z,602.1
2022-11-09T12:01:01.057Z,602.5
2022-11-09T12:03:51.282Z,611.9
2022-11-09T12:06:51.615Z,574.3
2022-11-09T12:09:51.721Z,567.9
2022-11-09T12:12:51.970Z,589.9
2022-11-09T12:15:52.182Z,602.5
2022-11-09T12:18:52.427Z,601.4
2022-11-09T12:21:52.652Z,582.6
2022-11-09T12:24:52.872Z,570.2
2022-11-09T12:27:53.095Z,548.5
2022-11-09T12:30:58.349Z,545.9
2022-11-09T12:33:53.558Z,534.5
2022-11-09T12:36:53.820Z,488.8
2022-11-09T12:39:54.020Z,472.9
2022-11-09T12:42:54.248Z,482.4
2022-11-09T12:45:54.472Z,503.7
2022-11-09T12:48:54.691Z,495.4
2022-11-09T12:51:58.795Z,495.9
2022-11-09T12:54:55.171Z,535.8
2022-11-09T12:58:00.582Z,568.9
2022-11-09T13:00:55.600Z,621.8
2022-11-09T13:03:55.841Z,655
2022-11-09T13:06:51.152Z,679.5
2022-11-09T13:09:56.301Z,704.2
2022-11-09T13:12:51.524Z,765.2
2022-11-09T13:15:51.740Z,824.1
2022-11-09T13:18:51.977Z,849.9
2022-11-09T13:21:52.226Z,872.7
2022-11-09T13:24:52.441Z,874.6
2022-11-09T13:27:52.652Z,873
2022-11-09T13:30:52.897Z,877.8
2022-11-09T13:33:53.109Z,897.2
2022-11-09T13:36:53.338Z,907
2022-11-09T13:39:53.572Z,857.5
2022-11-09T13:42:53.809Z,817.9
2022-11-09T13:45:54.036Z,743.3
2022-11-09T13:48:54.254Z,670.6
2022-11-09T13:51:54.478Z,613.5
2022-11-09T13:54:54.716Z,530.1
2022-11-09T13:57:54.950Z,458.9
2022-11-09T14:00:55.135Z,465
2022-11-09T14:03:55.409Z,448.8
2022-11-09T14:06:55.643Z,440.5
2022-11-09T14:09:55.854Z,452.2
2022-11-09T14:12:56.093Z,496.7
2022-11-09T14:16:01.316Z,534.6
2022-11-09T14:18:51.527Z,574.6
2022-11-09T14:21:51.775Z,625
2022-11-09T14:24:51.983Z,584.4
2022-11-09T14:27:52.213Z,634.2
2022-11-09T14:30:52.438Z,610.1
2022-11-09T14:33:52.688Z,587.1
2022-11-09T14:36:52.903Z,526
2022-11-09T14:39:53.150Z,457.8
2022-11-09T14:42:53.380Z,407.8
2022-11-09T14:45:53.576Z,324.5
2022-11-09T14:48:53.817Z,254.4
2022-11-09T14:51:54.042Z,174
2022-11-09T14:54:54.268Z,144.5
2022-11-09T14:57:54.504Z,134.1
2022-11-09T15:00:54.721Z,123.2
2022-11-09T15:03:54.992Z,113.8
2022-11-09T15:06:55.296Z,104
2022-11-09T15:09:55.408Z,91.6
2022-11-09T15:12:55.652Z,80.4
2022-11-09T15:15:55.902Z,69.7
2022-11-09T15:18:51.091Z,59.7
2022-11-09T15:21:51.337Z,50.8
2022-11-09T15:24:51.552Z,45.8
2022-11-09T15:27:51.792Z,40.9
2022-11-09T15:30:56.984Z,36.7
2022-11-09T15:33:52.241Z,32.7
2022-11-09T15:36:52.454Z,29
2022-11-09T15:39:52.679Z,26.3
2022-11-09T15:42:52.910Z,22.9
2022-11-09T15:45:53.131Z,18.2
2022-11-09T15:48:53.408Z,13.4
2022-11-09T15:51:53.586Z,9.5
2022-11-09T15:54:53.820Z,6.5
2022-11-09T15:57:54.096Z,6.5
2022-11-09T16:00:54.376Z,6.5
2022-11-09T16:03:54.506Z,6.5
2022-11-09T16:06:54.791Z,6.5
2022-11-09T16:09:54.953Z,6.5
2022-11-09T16:12:55.202Z,6.5
2022-11-09T16:15:55.412Z,6.5
2022-11-09T16:18:55.681Z,6.5
2022-11-09T16:21:55.872Z,6.5
2022-11-09T16:24:51.191Z,6.5
2022-11-09T16:27:51.679Z,6.5
2022-11-09T16:30:56.596Z,6.5
2022-11-09T16:33:51.786Z,6.5
2022-11-09T16:36:56.600Z,6.5
2022-11-09T16:39:52.225Z,6.5
2022-11-09T16:42:52.458Z,6.5
2022-11-09T16:45:52.690Z,6.5
2022-11-09T16:48:52.927Z,6.5
2022-11-09T16:51:53.156Z,6.5
2022-11-09T16:54:53.370Z,6.5
2022-11-09T19:21:54.557Z,5.6
2022-11-09T19:24:54.778Z,5.4
2022-11-09T19:27:55.124Z,5.8
2022-11-09T19:30:55.252Z,6.6
2022-11-09T19:33:55.455Z,7.6
2022-11-09T19:36:55.730Z,8.7
2022-11-09T19:39:55.932Z,10
2022-11-09T19:42:51.172Z,11.4
2022-11-09T19:45:51.372Z,11.3
2022-11-09T19:48:51.644Z,11.1
2022-11-09T19:51:51.820Z,11
2022-11-09T19:54:52.074Z,11
2022-11-09T19:57:52.253Z,11.1
2022-11-09T20:00:52.583Z,11.1
2022-11-09T20:03:52.733Z,11.1
2022-11-09T20:06:53.039Z,11.1
2022-11-09T20:09:53.188Z,11.1
2022-11-09T20:12:53.462Z,11.1
2022-11-09T20:15:53.666Z,11.1
2022-11-09T20:18:53.907Z,11.1
2022-11-09T20:21:54.101Z,11.1
2022-11-09T20:24:54.421Z,11.1
2022-11-09T20:27:54.554Z,11.1
2022-11-09T20:30:54.824Z,11.1
2022-11-09T20:33:55.024Z,11.1
2022-11-09T20:36:55.251Z,11.1
2022-11-09T20:39:55.474Z,11.1
2022-11-09T20:43:00.715Z,11.1
2022-11-09T20:45:55.942Z,11.1
2022-11-09T20:48:54.744Z,11.1
2022-11-09T20:51:51.387Z,11.1
2022-11-09T20:54:51.627Z,11.1
2022-11-09T20:57:51.836Z,11.1
2022-11-09T21:55:01.241Z,11.4
2022-11-09T21:57:51.447Z,11.5
2022-11-09T22:00:51.651Z,11.5
2022-11-09T22:03:51.916Z,11.5
2022-11-09T22:06:52.168Z,11.5
2022-11-09T22:10:09.241Z,11.5
2022-11-09T22:12:52.558Z,11.5
2022-11-09T22:15:52.778Z,11.5
2022-11-09T22:18:52.976Z,11.5
2022-11-09T22:21:53.266Z,11.5
2022-11-09T22:24:53.458Z,11.5
2022-11-09T22:27:53.690Z,11.5
2022-11-09T22:30:53.937Z,11.5
2022-11-09T22:33:54.145Z,11.5
2022-11-09T22:36:54.363Z,11.5
2022-11-09T22:39:54.596Z,11.5
2022-11-09T22:42:54.824Z,11.5
2022-11-09T22:45:55.058Z,11.5
2022-11-09T22:48:55.270Z,11.5
2022-11-09T22:51:55.547Z,11.5
2022-11-09T22:54:50.740Z,11.5
2022-11-09T22:57:56.000Z,11.5
2022-11-09T23:00:51.204Z,11.5
